sensor_id;sensor_type;location;lat;lon;timestamp;P1;durP1;ratioP1;P2;durP2;ratioP2
79139;SDS011;68546;59.142;37.948;2024-01-10T00:02:19;435.10;;;123.90;;
79139;SDS011;68546;59.142;37.948;2024-01-10T00:04:46;434.13;;;123.65;;
79139;SDS011;68546;59.142;37.948;2024-01-10T00:07:12;431.45;;;123.15;;
79139;SDS011;68546;59.142;37.948;2024-01-10T00:09:39;428.15;;;122.63;;
79139;SDS011;68546;59.142;37.948;2024-01-10T00:12:06;431.67;;;124.03;;
79139;SDS011;68546;59.142;37.948;2024-01-10T00:14:32;429.08;;;122.68;;
79139;SDS011;68546;59.142;37.948;2024-01-10T00:16:59;429.33;;;123.40;;
79139;SDS011;68546;59.142;37.948;2024-01-10T00:19:25;431.00;;;123.30;;
79139;SDS011;68546;59.142;37.948;2024-01-10T00:21:52;428.73;;;123.18;;
79139;SDS011;68546;59.142;37.948;2024-01-10T00:24:18;428.80;;;122.90;;
79139;SDS011;68546;59.142;37.948;2024-01-10T00:26:45;428.45;;;123.43;;
79139;SDS011;68546;59.142;37.948;2024-01-10T00:29:12;429.80;;;124.05;;
79139;SDS011;68546;59.142;37.948;2024-01-10T00:31:39;434.15;;;124.82;;
79139;SDS011;68546;59.142;37.948;2024-01-10T00:34:06;430.80;;;124.32;;
79139;SDS011;68546;59.142;37.948;2024-01-10T00:36:32;433.75;;;124.97;;
79139;SDS011;68546;59.142;37.948;2024-01-10T00:38:58;432.15;;;124.65;;
79139;SDS011;68546;59.142;37.948;2024-01-10T00:41:25;433.33;;;125.17;;
79139;SDS011;68546;59.142;37.948;2024-01-10T00:43:51;432.60;;;125.47;;
79139;SDS011;68546;59.142;37.948;2024-01-10T00:46:17;431.45;;;124.50;;
79139;SDS011;68546;59.142;37.948;2024-01-10T00:48:44;428.87;;;124.77;;
79139;SDS011;68546;59.142;37.948;2024-01-10T00:51:10;432.05;;;124.57;;
79139;SDS011;68546;59.142;37.948;2024-01-10T00:53:36;430.20;;;124.75;;
79139;SDS011;68546;59.142;37.948;2024-01-10T00:56:04;428.27;;;124.35;;
79139;SDS011;68546;59.142;37.948;2024-01-10T00:58:31;429.70;;;124.57;;
79139;SDS011;68546;59.142;37.948;2024-01-10T01:00:58;432.40;;;125.75;;
79139;SDS011;68546;59.142;37.948;2024-01-10T01:03:24;428.13;;;124.45;;
79139;SDS011;68546;59.142;37.948;2024-01-10T01:05:50;431.43;;;125.03;;
79139;SDS011;68546;59.142;37.948;2024-01-10T01:08:17;428.27;;;124.03;;
79139;SDS011;68546;59.142;37.948;2024-01-10T01:10:43;430.58;;;124.47;;
79139;SDS011;68546;59.142;37.948;2024-01-10T01:13:09;430.10;;;125.07;;
79139;SDS011;68546;59.142;37.948;2024-01-10T01:15:35;428.63;;;124.03;;
79139;SDS011;68546;59.142;37.948;2024-01-10T01:18:02;429.60;;;125.50;;
79139;SDS011;68546;59.142;37.948;2024-01-10T01:20:28;429.15;;;125.25;;
79139;SDS011;68546;59.142;37.948;2024-01-10T01:22:54;430.10;;;125.20;;
79139;SDS011;68546;59.142;37.948;2024-01-10T01:25:21;429.95;;;125.05;;
79139;SDS011;68546;59.142;37.948;2024-01-10T01:27:47;430.90;;;126.25;;
79139;SDS011;68546;59.142;37.948;2024-01-10T01:30:13;431.20;;;125.60;;
79139;SDS011;68546;59.142;37.948;2024-01-10T01:32:40;434.42;;;126.30;;
79139;SDS011;68546;59.142;37.948;2024-01-10T01:35:06;429.77;;;125.43;;
79139;SDS011;68546;59.142;37.948;2024-01-10T01:37:33;424.50;;;124.20;;
79139;SDS011;68546;59.142;37.948;2024-01-10T01:39:59;429.13;;;124.55;;
79139;SDS011;68546;59.142;37.948;2024-01-10T01:42:25;431.85;;;125.88;;
79139;SDS011;68546;59.142;37.948;2024-01-10T01:44:52;426.38;;;123.93;;
79139;SDS011;68546;59.142;37.948;2024-01-10T01:47:18;425.65;;;124.30;;
79139;SDS011;68546;59.142;37.948;2024-01-10T01:49:45;428.58;;;125.15;;
79139;SDS011;68546;59.142;37.948;2024-01-10T01:52:11;430.45;;;126.32;;
79139;SDS011;68546;59.142;37.948;2024-01-10T01:54:38;424.67;;;124.13;;
79139;SDS011;68546;59.142;37.948;2024-01-10T01:57:05;427.40;;;124.10;;
79139;SDS011;68546;59.142;37.948;2024-01-10T01:59:31;428.25;;;123.70;;
79139;SDS011;68546;59.142;37.948;2024-01-10T02:01:59;429.60;;;125.43;;
79139;SDS011;68546;59.142;37.948;2024-01-10T02:04:29;426.95;;;124.45;;
79139;SDS011;68546;59.142;37.948;2024-01-10T02:06:56;430.27;;;124.93;;
79139;SDS011;68546;59.142;37.948;2024-01-10T02:09:23;430.40;;;125.40;;
79139;SDS011;68546;59.142;37.948;2024-01-10T02:11:50;428.05;;;124.55;;
79139;SDS011;68546;59.142;37.948;2024-01-10T02:14:16;430.38;;;126.05;;
79139;SDS011;68546;59.142;37.948;2024-01-10T02:16:43;429.25;;;124.72;;
79139;SDS011;68546;59.142;37.948;2024-01-10T02:19:20;429.80;;;125.13;;
79139;SDS011;68546;59.142;37.948;2024-01-10T02:21:47;426.02;;;123.95;;
79139;SDS011;68546;59.142;37.948;2024-01-10T02:24:14;426.40;;;123.70;;
79139;SDS011;68546;59.142;37.948;2024-01-10T02:26:40;427.13;;;124.87;;
79139;SDS011;68546;59.142;37.948;2024-01-10T02:29:07;428.88;;;124.82;;
79139;SDS011;68546;59.142;37.948;2024-01-10T02:31:33;426.95;;;125.82;;
79139;SDS011;68546;59.142;37.948;2024-01-10T02:34:00;425.48;;;124.63;;
79139;SDS011;68546;59.142;37.948;2024-01-10T02:36:27;422.88;;;124.00;;
79139;SDS011;68546;59.142;37.948;2024-01-10T02:38:53;429.98;;;125.65;;
79139;SDS011;68546;59.142;37.948;2024-01-10T02:41:20;426.67;;;125.05;;
79139;SDS011;68546;59.142;37.948;2024-01-10T02:43:46;424.93;;;124.90;;
79139;SDS011;68546;59.142;37.948;2024-01-10T02:46:13;422.45;;;123.60;;
79139;SDS011;68546;59.142;37.948;2024-01-10T02:48:39;426.67;;;125.22;;
79139;SDS011;68546;59.142;37.948;2024-01-10T02:51:11;424.37;;;126.03;;
79139;SDS011;68546;59.142;37.948;2024-01-10T02:53:38;423.70;;;125.03;;
79139;SDS011;68546;59.142;37.948;2024-01-10T02:56:04;423.73;;;125.20;;
79139;SDS011;68546;59.142;37.948;2024-01-10T02:58:31;423.25;;;124.40;;
79139;SDS011;68546;59.142;37.948;2024-01-10T03:00:58;426.42;;;125.15;;
79139;SDS011;68546;59.142;37.948;2024-01-10T03:03:25;428.40;;;126.75;;
79139;SDS011;68546;59.142;37.948;2024-01-10T03:05:51;425.23;;;126.07;;
79139;SDS011;68546;59.142;37.948;2024-01-10T03:08:18;423.10;;;125.10;;
79139;SDS011;68546;59.142;37.948;2024-01-10T03:10:44;429.98;;;126.05;;
79139;SDS011;68546;59.142;37.948;2024-01-10T03:13:11;421.85;;;124.53;;
79139;SDS011;68546;59.142;37.948;2024-01-10T03:15:37;427.00;;;126.40;;
79139;SDS011;68546;59.142;37.948;2024-01-10T03:18:04;426.63;;;125.75;;
79139;SDS011;68546;59.142;37.948;2024-01-10T03:20:31;423.75;;;125.35;;
79139;SDS011;68546;59.142;37.948;2024-01-10T03:22:57;426.97;;;125.43;;
79139;SDS011;68546;59.142;37.948;2024-01-10T03:25:24;421.50;;;125.80;;
79139;SDS011;68546;59.142;37.948;2024-01-10T03:27:53;425.10;;;126.10;;
79139;SDS011;68546;59.142;37.948;2024-01-10T03:30:19;421.10;;;125.00;;
79139;SDS011;68546;59.142;37.948;2024-01-10T03:32:46;422.37;;;125.77;;
79139;SDS011;68546;59.142;37.948;2024-01-10T03:35:12;424.80;;;126.90;;
79139;SDS011;68546;59.142;37.948;2024-01-10T03:37:38;423.00;;;125.30;;
79139;SDS011;68546;59.142;37.948;2024-01-10T03:40:05;421.80;;;125.65;;
79139;SDS011;68546;59.142;37.948;2024-01-10T03:42:32;422.85;;;126.05;;
79139;SDS011;68546;59.142;37.948;2024-01-10T03:44:58;423.60;;;126.80;;
79139;SDS011;68546;59.142;37.948;2024-01-10T03:47:25;418.75;;;125.25;;
79139;SDS011;68546;59.142;37.948;2024-01-10T03:49:51;421.20;;;126.10;;
79139;SDS011;68546;59.142;37.948;2024-01-10T03:52:17;424.20;;;127.70;;
79139;SDS011;68546;59.142;37.948;2024-01-10T03:54:45;419.40;;;126.30;;
79139;SDS011;68546;59.142;37.948;2024-01-10T03:57:11;422.00;;;127.00;;
79139;SDS011;68546;59.142;37.948;2024-01-10T03:59:37;421.15;;;125.35;;
79139;SDS011;68546;59.142;37.948;2024-01-10T04:02:04;422.20;;;126.95;;
79139;SDS011;68546;59.142;37.948;2024-01-10T04:04:31;416.15;;;125.90;;
79139;SDS011;68546;59.142;37.948;2024-01-10T04:06:57;420.50;;;126.90;;
79139;SDS011;68546;59.142;37.948;2024-01-10T04:09:23;415.80;;;124.70;;
79139;SDS011;68546;59.142;37.948;2024-01-10T04:11:50;421.80;;;126.80;;
79139;SDS011;68546;59.142;37.948;2024-01-10T04:14:17;422.20;;;126.50;;
79139;SDS011;68546;59.142;37.948;2024-01-10T04:16:43;421.30;;;126.80;;
79139;SDS011;68546;59.142;37.948;2024-01-10T04:19:09;415.15;;;125.65;;
79139;SDS011;68546;59.142;37.948;2024-01-10T04:21:36;417.30;;;125.40;;
79139;SDS011;68546;59.142;37.948;2024-01-10T04:24:02;422.80;;;127.00;;
79139;SDS011;68546;59.142;37.948;2024-01-10T04:26:29;416.50;;;125.60;;
79139;SDS011;68546;59.142;37.948;2024-01-10T04:28:55;416.30;;;126.10;;
79139;SDS011;68546;59.142;37.948;2024-01-10T04:31:21;421.70;;;128.40;;
79139;SDS011;68546;59.142;37.948;2024-01-10T04:36:20;416.40;;;125.27;;
79139;SDS011;68546;59.142;37.948;2024-01-10T04:38:46;419.50;;;126.65;;
79139;SDS011;68546;59.142;37.948;2024-01-10T04:41:12;415.80;;;125.20;;
79139;SDS011;68546;59.142;37.948;2024-01-10T04:43:39;412.80;;;125.30;;
79139;SDS011;68546;59.142;37.948;2024-01-10T04:46:05;418.00;;;125.90;;
79139;SDS011;68546;59.142;37.948;2024-01-10T04:48:31;421.15;;;127.05;;
79139;SDS011;68546;59.142;37.948;2024-01-10T04:50:58;421.20;;;126.70;;
79139;SDS011;68546;59.142;37.948;2024-01-10T04:55:50;419.70;;;126.90;;
79139;SDS011;68546;59.142;37.948;2024-01-10T04:58:16;416.80;;;126.40;;
79139;SDS011;68546;59.142;37.948;2024-01-10T05:00:43;417.75;;;125.95;;
79139;SDS011;68546;59.142;37.948;2024-01-10T05:03:09;415.00;;;124.70;;
79139;SDS011;68546;59.142;37.948;2024-01-10T05:05:35;413.85;;;125.85;;
79139;SDS011;68546;59.142;37.948;2024-01-10T05:08:02;415.87;;;126.03;;
79139;SDS011;68546;59.142;37.948;2024-01-10T05:10:28;411.20;;;125.35;;
79139;SDS011;68546;59.142;37.948;2024-01-10T05:12:54;413.50;;;126.35;;
79139;SDS011;68546;59.142;37.948;2024-01-10T05:15:21;412.90;;;124.40;;
79139;SDS011;68546;59.142;37.948;2024-01-10T05:17:47;416.30;;;128.00;;
79139;SDS011;68546;59.142;37.948;2024-01-10T05:20:13;416.00;;;125.20;;
79139;SDS011;68546;59.142;37.948;2024-01-10T05:22:40;412.20;;;125.60;;
79139;SDS011;68546;59.142;37.948;2024-01-10T05:25:06;414.20;;;125.40;;
79139;SDS011;68546;59.142;37.948;2024-01-10T05:27:33;411.00;;;125.10;;
79139;SDS011;68546;59.142;37.948;2024-01-10T05:29:59;416.00;;;125.40;;
79139;SDS011;68546;59.142;37.948;2024-01-10T05:32:26;416.10;;;126.30;;
79139;SDS011;68546;59.142;37.948;2024-01-10T05:34:53;415.90;;;126.20;;
79139;SDS011;68546;59.142;37.948;2024-01-10T05:37:20;417.90;;;125.60;;
79139;SDS011;68546;59.142;37.948;2024-01-10T05:39:47;415.85;;;125.65;;
79139;SDS011;68546;59.142;37.948;2024-01-10T05:42:15;415.00;;;125.70;;
79139;SDS011;68546;59.142;37.948;2024-01-10T05:44:41;416.50;;;125.25;;
79139;SDS011;68546;59.142;37.948;2024-01-10T05:47:07;416.00;;;126.20;;
79139;SDS011;68546;59.142;37.948;2024-01-10T05:49:34;412.20;;;124.70;;
79139;SDS011;68546;59.142;37.948;2024-01-10T05:52:00;418.50;;;128.15;;
79139;SDS011;68546;59.142;37.948;2024-01-10T05:54:27;424.60;;;129.20;;
79139;SDS011;68546;59.142;37.948;2024-01-10T05:56:53;416.10;;;127.35;;
79139;SDS011;68546;59.142;37.948;2024-01-10T06:01:45;417.65;;;125.45;;
79139;SDS011;68546;59.142;37.948;2024-01-10T06:09:04;415.95;;;126.65;;
79139;SDS011;68546;59.142;37.948;2024-01-10T06:11:30;417.90;;;126.60;;
79139;SDS011;68546;59.142;37.948;2024-01-10T06:13:56;415.00;;;125.50;;
79139;SDS011;68546;59.142;37.948;2024-01-10T06:16:23;411.30;;;125.00;;
79139;SDS011;68546;59.142;37.948;2024-01-10T06:18:50;417.60;;;125.40;;
79139;SDS011;68546;59.142;37.948;2024-01-10T06:21:16;416.65;;;127.95;;
79139;SDS011;68546;59.142;37.948;2024-01-10T06:23:42;417.70;;;126.90;;
79139;SDS011;68546;59.142;37.948;2024-01-10T06:26:09;418.25;;;127.60;;
79139;SDS011;68546;59.142;37.948;2024-01-10T06:28:36;418.80;;;129.20;;
79139;SDS011;68546;59.142;37.948;2024-01-10T06:33:29;417.65;;;129.90;;
79139;SDS011;68546;59.142;37.948;2024-01-10T06:35:55;423.20;;;131.70;;
79139;SDS011;68546;59.142;37.948;2024-01-10T06:38:23;412.60;;;125.70;;
79139;SDS011;68546;59.142;37.948;2024-01-10T06:40:49;410.80;;;125.70;;
79139;SDS011;68546;59.142;37.948;2024-01-10T06:43:16;420.13;;;128.60;;
79139;SDS011;68546;59.142;37.948;2024-01-10T06:45:43;415.55;;;127.60;;
79139;SDS011;68546;59.142;37.948;2024-01-10T06:48:09;414.10;;;125.70;;
79139;SDS011;68546;59.142;37.948;2024-01-10T06:50:36;416.63;;;127.10;;
79139;SDS011;68546;59.142;37.948;2024-01-10T06:53:04;416.00;;;126.70;;
79139;SDS011;68546;59.142;37.948;2024-01-10T06:55:30;419.30;;;128.45;;
79139;SDS011;68546;59.142;37.948;2024-01-10T06:57:57;416.80;;;127.40;;
79139;SDS011;68546;59.142;37.948;2024-01-10T07:00:23;414.30;;;126.75;;
79139;SDS011;68546;59.142;37.948;2024-01-10T07:02:50;420.45;;;127.60;;
79139;SDS011;68546;59.142;37.948;2024-01-10T07:05:17;412.95;;;126.70;;
79139;SDS011;68546;59.142;37.948;2024-01-10T07:07:45;420.70;;;127.90;;
79139;SDS011;68546;59.142;37.948;2024-01-10T07:10:12;424.10;;;126.85;;
79139;SDS011;68546;59.142;37.948;2024-01-10T07:12:38;411.00;;;124.75;;
79139;SDS011;68546;59.142;37.948;2024-01-10T07:15:05;417.85;;;127.50;;
79139;SDS011;68546;59.142;37.948;2024-01-10T07:17:32;415.45;;;125.45;;
79139;SDS011;68546;59.142;37.948;2024-01-10T07:19:59;415.80;;;125.30;;
79139;SDS011;68546;59.142;37.948;2024-01-10T07:22:25;419.30;;;128.60;;
79139;SDS011;68546;59.142;37.948;2024-01-10T07:24:52;424.83;;;133.47;;
79139;SDS011;68546;59.142;37.948;2024-01-10T07:27:19;429.00;;;133.00;;
79139;SDS011;68546;59.142;37.948;2024-01-10T07:29:45;418.10;;;132.60;;
79139;SDS011;68546;59.142;37.948;2024-01-10T07:32:12;423.20;;;133.20;;
79139;SDS011;68546;59.142;37.948;2024-01-10T07:34:39;422.40;;;129.60;;
79139;SDS011;68546;59.142;37.948;2024-01-10T07:37:05;421.50;;;133.30;;
79139;SDS011;68546;59.142;37.948;2024-01-10T07:39:32;415.50;;;128.60;;
79139;SDS011;68546;59.142;37.948;2024-01-10T07:41:58;421.20;;;133.47;;
79139;SDS011;68546;59.142;37.948;2024-01-10T07:44:28;419.10;;;130.70;;
79139;SDS011;68546;59.142;37.948;2024-01-10T07:46:54;423.10;;;131.80;;
79139;SDS011;68546;59.142;37.948;2024-01-10T07:49:21;423.20;;;133.00;;
79139;SDS011;68546;59.142;37.948;2024-01-10T07:51:49;417.25;;;129.70;;
79139;SDS011;68546;59.142;37.948;2024-01-10T07:54:16;421.05;;;132.45;;
79139;SDS011;68546;59.142;37.948;2024-01-10T07:56:42;418.50;;;128.20;;
79139;SDS011;68546;59.142;37.948;2024-01-10T07:59:09;416.20;;;127.70;;
79139;SDS011;68546;59.142;37.948;2024-01-10T08:01:35;414.90;;;125.30;;
79139;SDS011;68546;59.142;37.948;2024-01-10T08:04:02;424.30;;;132.90;;
79139;SDS011;68546;59.142;37.948;2024-01-10T08:06:30;420.80;;;129.60;;
79139;SDS011;68546;59.142;37.948;2024-01-10T08:08:56;416.20;;;126.40;;
79139;SDS011;68546;59.142;37.948;2024-01-10T08:13:50;422.00;;;129.10;;
79139;SDS011;68546;59.142;37.948;2024-01-10T08:16:17;421.00;;;127.50;;
79139;SDS011;68546;59.142;37.948;2024-01-10T08:18:44;422.10;;;128.20;;
79139;SDS011;68546;59.142;37.948;2024-01-10T08:21:11;425.10;;;129.15;;
79139;SDS011;68546;59.142;37.948;2024-01-10T08:23:37;425.10;;;129.30;;
79139;SDS011;68546;59.142;37.948;2024-01-10T08:26:06;418.50;;;126.10;;
79139;SDS011;68546;59.142;37.948;2024-01-10T08:28:33;425.45;;;128.25;;
79139;SDS011;68546;59.142;37.948;2024-01-10T08:31:00;431.55;;;134.57;;
79139;SDS011;68546;59.142;37.948;2024-01-10T08:33:27;422.40;;;126.80;;
79139;SDS011;68546;59.142;37.948;2024-01-10T08:35:53;422.88;;;126.30;;
79139;SDS011;68546;59.142;37.948;2024-01-10T08:38:19;423.33;;;126.00;;
79139;SDS011;68546;59.142;37.948;2024-01-10T08:40:46;429.80;;;127.82;;
79139;SDS011;68546;59.142;37.948;2024-01-10T08:43:13;425.08;;;127.45;;
79139;SDS011;68546;59.142;37.948;2024-01-10T08:45:39;428.23;;;127.88;;
79139;SDS011;68546;59.142;37.948;2024-01-10T08:48:06;434.20;;;128.75;;
79139;SDS011;68546;59.142;37.948;2024-01-10T08:50:36;428.37;;;126.33;;
79139;SDS011;68546;59.142;37.948;2024-01-10T08:53:02;427.55;;;126.70;;
79139;SDS011;68546;59.142;37.948;2024-01-10T08:55:31;429.38;;;127.68;;
79139;SDS011;68546;59.142;37.948;2024-01-10T08:57:57;424.47;;;124.63;;
79139;SDS011;68546;59.142;37.948;2024-01-10T09:00:24;427.02;;;125.00;;
79139;SDS011;68546;59.142;37.948;2024-01-10T09:02:50;431.48;;;126.18;;
79139;SDS011;68546;59.142;37.948;2024-01-10T09:05:17;425.67;;;124.05;;
79139;SDS011;68546;59.142;37.948;2024-01-10T09:07:47;425.45;;;124.35;;
79139;SDS011;68546;59.142;37.948;2024-01-10T09:10:14;429.05;;;125.35;;
79139;SDS011;68546;59.142;37.948;2024-01-10T09:12:41;423.02;;;124.05;;
79139;SDS011;68546;59.142;37.948;2024-01-10T09:15:12;425.20;;;123.30;;
79139;SDS011;68546;59.142;37.948;2024-01-10T09:17:43;427.25;;;122.90;;
79139;SDS011;68546;59.142;37.948;2024-01-10T09:20:12;428.88;;;124.32;;
79139;SDS011;68546;59.142;37.948;2024-01-10T09:22:39;423.83;;;122.50;;
79139;SDS011;68546;59.142;37.948;2024-01-10T09:25:05;431.55;;;124.10;;
79139;SDS011;68546;59.142;37.948;2024-01-10T09:27:32;428.85;;;125.10;;
79139;SDS011;68546;59.142;37.948;2024-01-10T09:30:02;428.67;;;123.22;;
79139;SDS011;68546;59.142;37.948;2024-01-10T09:32:31;426.58;;;123.57;;
79139;SDS011;68546;59.142;37.948;2024-01-10T09:34:57;433.45;;;124.82;;
79139;SDS011;68546;59.142;37.948;2024-01-10T09:37:24;431.10;;;123.10;;
79139;SDS011;68546;59.142;37.948;2024-01-10T09:39:50;427.97;;;123.17;;
79139;SDS011;68546;59.142;37.948;2024-01-10T09:42:16;434.65;;;124.97;;
79139;SDS011;68546;59.142;37.948;2024-01-10T09:44:43;432.70;;;124.78;;
79139;SDS011;68546;59.142;37.948;2024-01-10T09:47:09;432.40;;;125.10;;
79139;SDS011;68546;59.142;37.948;2024-01-10T09:49:36;432.88;;;124.35;;
79139;SDS011;68546;59.142;37.948;2024-01-10T09:52:04;432.55;;;125.57;;
79139;SDS011;68546;59.142;37.948;2024-01-10T09:54:33;436.10;;;126.68;;
79139;SDS011;68546;59.142;37.948;2024-01-10T09:57:03;431.00;;;126.30;;
79139;SDS011;68546;59.142;37.948;2024-01-10T09:59:31;435.77;;;126.35;;
79139;SDS011;68546;59.142;37.948;2024-01-10T10:01:57;431.58;;;124.45;;
79139;SDS011;68546;59.142;37.948;2024-01-10T10:04:24;423.43;;;122.53;;
79139;SDS011;68546;59.142;37.948;2024-01-10T10:06:59;430.92;;;124.00;;
79139;SDS011;68546;59.142;37.948;2024-01-10T10:09:29;426.20;;;123.80;;
79139;SDS011;68546;59.142;37.948;2024-01-10T10:11:56;422.60;;;123.27;;
79139;SDS011;68546;59.142;37.948;2024-01-10T10:14:28;423.48;;;123.30;;
79139;SDS011;68546;59.142;37.948;2024-01-10T10:16:55;425.80;;;125.20;;
79139;SDS011;68546;59.142;37.948;2024-01-10T10:19:24;426.63;;;124.70;;
79139;SDS011;68546;59.142;37.948;2024-01-10T10:21:51;427.73;;;124.13;;
79139;SDS011;68546;59.142;37.948;2024-01-10T10:24:17;432.02;;;126.38;;
79139;SDS011;68546;59.142;37.948;2024-01-10T10:26:43;429.30;;;124.68;;
79139;SDS011;68546;59.142;37.948;2024-01-10T10:29:09;426.13;;;125.10;;
79139;SDS011;68546;59.142;37.948;2024-01-10T10:31:36;427.83;;;124.95;;
79139;SDS011;68546;59.142;37.948;2024-01-10T10:34:02;428.25;;;124.45;;
79139;SDS011;68546;59.142;37.948;2024-01-10T10:36:31;423.13;;;123.30;;
79139;SDS011;68546;59.142;37.948;2024-01-10T10:39:01;426.80;;;124.03;;
79139;SDS011;68546;59.142;37.948;2024-01-10T10:41:29;428.77;;;125.90;;
79139;SDS011;68546;59.142;37.948;2024-01-10T10:43:58;427.80;;;125.70;;
79139;SDS011;68546;59.142;37.948;2024-01-10T10:46:26;429.90;;;127.15;;
79139;SDS011;68546;59.142;37.948;2024-01-10T10:48:53;431.75;;;126.60;;
79139;SDS011;68546;59.142;37.948;2024-01-10T10:51:28;433.00;;;127.57;;
79139;SDS011;68546;59.142;37.948;2024-01-10T10:53:59;420.63;;;123.93;;
79139;SDS011;68546;59.142;37.948;2024-01-10T10:56:28;425.08;;;125.28;;
79139;SDS011;68546;59.142;37.948;2024-01-10T10:58:56;430.55;;;127.28;;
79139;SDS011;68546;59.142;37.948;2024-01-10T11:01:24;428.63;;;126.00;;
79139;SDS011;68546;59.142;37.948;2024-01-10T11:03:52;430.60;;;127.05;;
79139;SDS011;68546;59.142;37.948;2024-01-10T11:06:20;431.83;;;128.40;;
79139;SDS011;68546;59.142;37.948;2024-01-10T11:08:59;427.17;;;125.18;;
79139;SDS011;68546;59.142;37.948;2024-01-10T11:14:24;420.90;;;125.63;;
79139;SDS011;68546;59.142;37.948;2024-01-10T11:17:25;430.60;;;128.50;;
79139;SDS011;68546;59.142;37.948;2024-01-10T11:22:43;422.88;;;124.82;;
79139;SDS011;68546;59.142;37.948;2024-01-10T11:25:18;425.77;;;126.13;;
79139;SDS011;68546;59.142;37.948;2024-01-10T11:27:45;426.00;;;127.50;;
79139;SDS011;68546;59.142;37.948;2024-01-10T11:30:13;425.23;;;125.88;;
79139;SDS011;68546;59.142;37.948;2024-01-10T11:32:56;432.95;;;127.88;;
79139;SDS011;68546;59.142;37.948;2024-01-10T11:35:22;423.33;;;124.95;;
79139;SDS011;68546;59.142;37.948;2024-01-10T11:37:50;422.33;;;126.28;;
79139;SDS011;68546;59.142;37.948;2024-01-10T11:40:23;426.65;;;126.85;;
79139;SDS011;68546;59.142;37.948;2024-01-10T11:43:13;433.98;;;130.60;;
79139;SDS011;68546;59.142;37.948;2024-01-10T11:45:55;432.37;;;129.10;;
79139;SDS011;68546;59.142;37.948;2024-01-10T11:48:26;428.88;;;127.10;;
79139;SDS011;68546;59.142;37.948;2024-01-10T11:50:53;433.25;;;128.77;;
79139;SDS011;68546;59.142;37.948;2024-01-10T11:56:11;439.88;;;131.55;;
79139;SDS011;68546;59.142;37.948;2024-01-10T11:58:55;424.63;;;127.63;;
79139;SDS011;68546;59.142;37.948;2024-01-10T12:01:22;433.77;;;129.05;;
79139;SDS011;68546;59.142;37.948;2024-01-10T12:03:50;427.88;;;126.80;;
79139;SDS011;68546;59.142;37.948;2024-01-10T12:06:18;428.15;;;127.03;;
79139;SDS011;68546;59.142;37.948;2024-01-10T12:08:46;424.27;;;127.13;;
79139;SDS011;68546;59.142;37.948;2024-01-10T12:11:13;430.23;;;127.03;;
79139;SDS011;68546;59.142;37.948;2024-01-10T12:13:39;429.48;;;128.02;;
79139;SDS011;68546;59.142;37.948;2024-01-10T12:16:06;433.05;;;128.25;;
79139;SDS011;68546;59.142;37.948;2024-01-10T12:18:32;423.90;;;125.40;;
79139;SDS011;68546;59.142;37.948;2024-01-10T12:20:59;421.92;;;126.22;;
79139;SDS011;68546;59.142;37.948;2024-01-10T12:23:26;425.35;;;125.40;;
79139;SDS011;68546;59.142;37.948;2024-01-10T12:25:57;421.73;;;124.50;;
79139;SDS011;68546;59.142;37.948;2024-01-10T12:28:28;416.10;;;123.55;;
79139;SDS011;68546;59.142;37.948;2024-01-10T12:30:54;423.88;;;125.25;;
79139;SDS011;68546;59.142;37.948;2024-01-10T12:33:24;417.95;;;121.78;;
79139;SDS011;68546;59.142;37.948;2024-01-10T12:36:10;417.23;;;122.50;;
79139;SDS011;68546;59.142;37.948;2024-01-10T12:38:40;419.77;;;122.70;;
79139;SDS011;68546;59.142;37.948;2024-01-10T12:41:06;421.15;;;122.97;;
79139;SDS011;68546;59.142;37.948;2024-01-10T12:43:35;419.63;;;122.70;;
79139;SDS011;68546;59.142;37.948;2024-01-10T12:46:09;423.20;;;122.97;;
79139;SDS011;68546;59.142;37.948;2024-01-10T12:48:41;427.92;;;123.55;;
79139;SDS011;68546;59.142;37.948;2024-01-10T12:51:11;427.08;;;125.20;;
79139;SDS011;68546;59.142;37.948;2024-01-10T12:53:40;421.38;;;122.90;;
79139;SDS011;68546;59.142;37.948;2024-01-10T12:56:08;420.70;;;123.45;;
79139;SDS011;68546;59.142;37.948;2024-01-10T12:58:40;423.30;;;124.13;;
79139;SDS011;68546;59.142;37.948;2024-01-10T13:01:08;416.67;;;122.57;;
79139;SDS011;68546;59.142;37.948;2024-01-10T13:03:35;425.85;;;125.47;;
79139;SDS011;68546;59.142;37.948;2024-01-10T13:06:02;421.20;;;123.13;;
79139;SDS011;68546;59.142;37.948;2024-01-10T13:08:29;425.30;;;122.93;;
79139;SDS011;68546;59.142;37.948;2024-01-10T13:10:55;421.40;;;123.78;;
79139;SDS011;68546;59.142;37.948;2024-01-10T13:13:22;425.38;;;124.82;;
79139;SDS011;68546;59.142;37.948;2024-01-10T13:15:49;424.73;;;124.47;;
79139;SDS011;68546;59.142;37.948;2024-01-10T13:18:16;420.45;;;122.43;;
79139;SDS011;68546;59.142;37.948;2024-01-10T13:20:43;427.38;;;124.18;;
79139;SDS011;68546;59.142;37.948;2024-01-10T13:23:10;420.63;;;122.22;;
79139;SDS011;68546;59.142;37.948;2024-01-10T13:25:37;426.47;;;122.53;;
79139;SDS011;68546;59.142;37.948;2024-01-10T13:28:04;421.67;;;122.30;;
79139;SDS011;68546;59.142;37.948;2024-01-10T13:30:31;420.67;;;121.82;;
79139;SDS011;68546;59.142;37.948;2024-01-10T13:32:57;421.83;;;121.73;;
79139;SDS011;68546;59.142;37.948;2024-01-10T13:35:24;419.65;;;122.03;;
79139;SDS011;68546;59.142;37.948;2024-01-10T13:37:50;420.33;;;122.68;;
79139;SDS011;68546;59.142;37.948;2024-01-10T13:40:17;424.63;;;123.43;;
79139;SDS011;68546;59.142;37.948;2024-01-10T13:42:46;419.33;;;122.55;;
79139;SDS011;68546;59.142;37.948;2024-01-10T13:45:12;420.80;;;122.50;;
79139;SDS011;68546;59.142;37.948;2024-01-10T13:47:39;419.77;;;121.80;;
79139;SDS011;68546;59.142;37.948;2024-01-10T13:50:06;416.33;;;121.33;;
79139;SDS011;68546;59.142;37.948;2024-01-10T13:52:33;419.38;;;122.70;;
79139;SDS011;68546;59.142;37.948;2024-01-10T13:54:59;420.02;;;123.35;;
79139;SDS011;68546;59.142;37.948;2024-01-10T13:57:27;416.70;;;121.60;;
79139;SDS011;68546;59.142;37.948;2024-01-10T13:59:53;420.98;;;123.03;;
79139;SDS011;68546;59.142;37.948;2024-01-10T14:02:21;423.95;;;123.65;;
79139;SDS011;68546;59.142;37.948;2024-01-10T14:04:48;420.35;;;122.50;;
79139;SDS011;68546;59.142;37.948;2024-01-10T14:07:15;418.00;;;122.30;;
79139;SDS011;68546;59.142;37.948;2024-01-10T14:09:42;422.15;;;123.70;;
79139;SDS011;68546;59.142;37.948;2024-01-10T14:12:09;420.40;;;122.50;;